Time;durP1;ratioP1;P1;durP2;ratioP2;P2;SDS_P1;SDS_P2;PMS_P1;PMS_P2;Temp;Humidity;BMP_temperature;BMP_pressure;BME280_temperature;BME280_humidity;BME280_pressure;Samples;Min_cycle;Max_cycle;Signal;HPM_P1;HPM_P2
2022/05/14 00:01:53;;;;;;;29.25;4.20;;;11.80;67.40;;;;;;4177075;28;20037;-83
2022/05/14 00:03:54;;;;;;;16.27;3.75;;;11.80;67.40;;;;;;4166463;28;20470;-83
2022/05/14 00:05:59;;;;;;;28.08;4.68;;;11.80;67.60;;;;;;4156251;28;20420;-84
2022/05/14 00:08:22;;;;;;;21.73;4.13;;;11.80;67.60;;;;;;4162382;28;20036;-84
2022/05/14 00:10:25;;;;;;;16.98;3.33;;;11.90;67.60;;;;;;4161700;28;20045;-83
2022/05/14 00:13:03;;;;;;;26.85;3.60;;;11.90;67.60;;;;;;4160797;28;20113;-83
2022/05/14 00:15:24;;;;;;;23.92;3.97;;;11.80;67.60;;;;;;4172534;28;20381;-83
2022/05/14 00:17:26;;;;;;;20.10;4.05;;;11.80;67.80;;;;;;4159060;28;20096;-86
2022/05/14 00:19:27;;;;;;;28.13;4.05;;;11.80;67.70;;;;;;4161799;28;20143;-83
2022/05/14 00:21:48;;;;;;;24.27;4.10;;;11.80;67.80;;;;;;4164583;28;21671;-84
2022/05/14 00:24:09;;;;;;;17.35;4.03;;;11.80;67.80;;;;;;4159676;28;20041;-84
2022/05/14 00:26:29;;;;;;;20.15;3.95;;;11.80;67.80;;;;;;4160209;28;20034;-83
2022/05/14 00:28:48;;;;;;;24.20;4.00;;;11.90;67.90;;;;;;4158163;28;20033;-83
2022/05/14 00:31:09;;;;;;;25.63;4.57;;;11.90;67.90;;;;;;4162160;28;20498;-83
2022/05/14 00:33:30;;;;;;;21.00;3.35;;;11.90;68.00;;;;;;4160449;28;20049;-83
2022/05/14 00:35:51;;;;;;;24.92;4.10;;;11.90;68.00;;;;;;4159693;28;20026;-83
2022/05/14 00:38:12;;;;;;;22.40;3.90;;;11.90;68.00;;;;;;4162466;28;20087;-85
2022/05/14 00:40:37;;;;;;;22.25;4.38;;;11.90;68.00;;;;;;4160422;28;20053;-83
2022/05/14 00:42:59;;;;;;;28.05;4.40;;;11.90;68.00;;;;;;4158966;28;20026;-83
2022/05/14 00:45:21;;;;;;;24.58;3.97;;;11.90;68.00;;;;;;4164251;28;20042;-83
2022/05/14 00:47:43;;;;;;;20.23;3.65;;;11.90;67.90;;;;;;4163110;28;20045;-83
2022/05/14 00:50:17;;;;;;;22.92;4.20;;;11.90;67.90;;;;;;4168019;28;20033;-83
2022/05/14 00:52:38;;;;;;;22.67;3.80;;;11.90;67.80;;;;;;4166102;28;20033;-83
2022/05/14 00:55:03;;;;;;;26.70;4.07;;;12.00;67.80;;;;;;4166675;28;20021;-84
2022/05/14 00:57:27;;;;;;;27.75;4.43;;;11.90;67.70;;;;;;4168442;28;20040;-84
2022/05/14 00:59:48;;;;;;;;;;;11.90;67.60;;;;;;4168122;28;20029;-83
2022/05/14 01:02:08;;;;;;;23.15;3.75;;;12.00;67.70;;;;;;4166299;28;19928;-83
2022/05/14 01:04:29;;;;;;;27.40;4.00;;;12.00;67.50;;;;;;4166688;28;20049;-83
2022/05/14 01:07:12;;;;;;;28.65;4.88;;;12.00;67.50;;;;;;4166331;28;20068;-85
2022/05/14 01:09:36;;;;;;;22.70;3.80;;;12.00;68.20;;;;;;4170773;28;20048;-83
2022/05/14 01:11:57;;;;;;;24.17;4.35;;;12.00;67.40;;;;;;4169406;28;20029;-83
2022/05/14 01:14:21;;;;;;;24.50;4.20;;;12.00;67.40;;;;;;4180093;28;20025;-83
2022/05/14 01:16:41;;;;;;;23.95;3.75;;;12.00;67.40;;;;;;4165900;28;20040;-84
2022/05/14 01:19:03;;;;;;;28.90;4.75;;;12.00;67.40;;;;;;4178986;28;20048;-84
2022/05/14 01:21:48;;;;;;;23.83;4.05;;;12.00;67.30;;;;;;4169728;28;20068;-83
2022/05/14 01:27:05;;;;;;;33.83;4.63;;;12.00;67.30;;;;;;4163768;28;20116;-84
2022/05/14 01:29:27;;;;;;;23.20;3.45;;;12.00;67.20;;;;;;4162422;28;20048;-84
2022/05/14 01:31:49;;;;;;;22.17;4.22;;;12.00;67.20;;;;;;4175061;28;21387;-83
2022/05/14 01:34:13;;;;;;;21.73;4.90;;;12.00;67.10;;;;;;4178298;28;20159;-82
2022/05/14 01:36:36;;;;;;;21.33;3.55;;;12.00;67.10;;;;;;4163261;28;20121;-82
2022/05/14 01:38:57;;;;;;;25.47;4.40;;;12.00;67.10;;;;;;4161707;28;20036;-83
2022/05/14 01:41:18;;;;;;;26.05;3.83;;;12.00;67.10;;;;;;4166010;28;20036;-82
2022/05/14 01:43:39;;;;;;;19.73;3.45;;;12.00;67.10;;;;;;4165290;28;20489;-83
2022/05/14 01:46:00;;;;;;;24.33;3.97;;;12.00;67.10;;;;;;4165241;28;20171;-84
2022/05/14 01:48:20;;;;;;;24.65;4.53;;;12.00;67.20;;;;;;4175822;28;20021;-83
2022/05/14 01:50:41;;;;;;;26.98;4.15;;;12.00;67.20;;;;;;4166035;28;20025;-84
2022/05/14 01:53:02;;;;;;;27.90;3.88;;;12.00;67.20;;;;;;4166101;28;20034;-83
2022/05/14 01:55:23;;;;;;;26.70;3.72;;;12.00;67.30;;;;;;4164213;28;20505;-83
2022/05/14 01:57:44;;;;;;;23.63;3.83;;;12.00;67.30;;;;;;4166567;28;20037;-83
2022/05/14 02:00:10;;;;;;;21.85;3.72;;;12.00;67.40;;;;;;4164362;28;20029;-82
2022/05/14 02:02:31;;;;;;;31.05;4.78;;;12.00;67.40;;;;;;4164898;28;20124;-83
2022/05/14 02:04:51;;;;;;;22.15;3.78;;;12.10;67.50;;;;;;4162065;28;20064;-82
2022/05/14 02:07:12;;;;;;;34.85;4.55;;;12.10;67.50;;;;;;4162244;28;20041;-84
2022/05/14 02:09:32;;;;;;;26.67;4.43;;;12.00;67.60;;;;;;4176707;28;20020;-83
2022/05/14 02:11:52;;;;;;;28.73;4.55;;;12.10;67.70;;;;;;4162598;28;20397;-84
2022/05/14 02:14:12;;;;;;;25.77;3.95;;;12.10;67.70;;;;;;4162238;28;20079;-83
2022/05/14 02:16:32;;;;;;;31.50;4.78;;;12.10;67.80;;;;;;4161626;28;20048;-83
2022/05/14 02:18:51;;;;;;;28.83;4.55;;;12.00;67.80;;;;;;4167370;28;20139;-83
2022/05/14 02:21:11;;;;;;;26.67;4.28;;;12.10;68.00;;;;;;4162172;28;20051;-83
2022/05/14 02:23:31;;;;;;;27.58;4.47;;;12.00;67.90;;;;;;4162310;28;20384;-84
2022/05/14 02:25:51;;;;;;;29.10;4.40;;;12.10;68.10;;;;;;4162504;28;20056;-83
2022/05/14 02:28:10;;;;;;;27.00;4.60;;;12.00;68.10;;;;;;4172563;28;20105;-83
2022/05/14 02:30:29;;;;;;;30.80;4.55;;;12.00;68.10;;;;;;4164192;28;20040;-84
2022/05/14 02:32:48;;;;;;;23.10;4.15;;;12.00;68.20;;;;;;4148227;28;20040;-83
2022/05/14 02:35:08;;;;;;;26.65;4.65;;;12.10;68.30;;;;;;4162992;28;20044;-83
2022/05/14 02:37:27;;;;;;;30.15;5.00;;;12.00;68.30;;;;;;4160550;28;20124;-83
2022/05/14 02:39:47;;;;;;;21.20;4.20;;;12.00;68.40;;;;;;4158015;28;20152;-83
2022/05/14 02:42:07;;;;;;;25.27;4.60;;;12.00;68.40;;;;;;4164859;28;20762;-83
2022/05/14 02:44:27;;;;;;;27.45;4.32;;;12.00;68.40;;;;;;4165534;28;20052;-83
2022/05/14 02:46:46;;;;;;;35.13;4.70;;;12.10;68.60;;;;;;4167054;28;20020;-84
2022/05/14 02:49:06;;;;;;;33.22;4.43;;;12.00;69.30;;;;;;4177778;28;20043;-83
2022/05/14 02:51:25;;;;;;;34.20;4.72;;;12.00;68.70;;;;;;4174539;28;20127;-82
2022/05/14 02:53:44;;;;;;;33.05;4.43;;;12.00;68.70;;;;;;4162704;28;20080;-83
2022/05/14 02:56:04;;;;;;;29.77;4.03;;;12.00;68.70;;;;;;4164577;28;20561;-83
2022/05/14 03:01:02;;;;;;;32.85;4.35;;;12.10;69.00;;;;;;4162009;28;20061;-83
2022/05/14 03:03:22;;;;;;;30.92;5.22;;;12.00;69.00;;;;;;4166583;28;20045;-82
2022/05/14 03:05:41;;;;;;;26.90;5.03;;;12.00;69.10;;;;;;4162699;28;20056;-83
2022/05/14 03:08:00;;;;;;;32.08;5.05;;;12.00;69.10;;;;;;4180519;28;20375;-83
2022/05/14 03:10:20;;;;;;;34.58;5.50;;;11.90;69.00;;;;;;4162293;28;20120;-83
2022/05/14 03:12:40;;;;;;;27.42;4.10;;;12.00;69.20;;;;;;4168848;28;20048;-82
2022/05/14 03:15:00;;;;;;;31.80;5.15;;;12.00;69.20;;;;;;4178380;28;20040;-83
2022/05/14 03:17:21;;;;;;;25.17;4.85;;;12.00;69.20;;;;;;4166632;28;20187;-83
2022/05/14 03:19:41;;;;;;;34.20;5.72;;;12.00;69.20;;;;;;4160967;28;20805;-83
2022/05/14 03:22:01;;;;;;;27.83;4.40;;;12.00;69.20;;;;;;4157642;28;20071;-83
2022/05/14 03:24:20;;;;;;;26.20;3.83;;;12.00;69.20;;;;;;4185184;28;20048;-82
2022/05/14 03:26:41;;;;;;;30.00;4.97;;;12.10;69.40;;;;;;4170477;28;20033;-83
2022/05/14 03:29:01;;;;;;;29.48;4.63;;;12.00;69.30;;;;;;4163775;28;20047;-82
2022/05/14 03:31:20;;;;;;;29.88;5.22;;;12.00;69.30;;;;;;4161614;28;20028;-82
2022/05/14 03:33:40;;;;;;;29.38;4.40;;;12.00;69.30;;;;;;4159437;28;20048;-83
2022/05/14 03:35:59;;;;;;;27.45;4.57;;;12.00;69.40;;;;;;4174127;28;20051;-83
2022/05/14 03:38:18;;;;;;;30.15;4.53;;;12.00;69.50;;;;;;4162896;28;20072;-82
2022/05/14 03:40:37;;;;;;;31.20;5.07;;;12.00;69.40;;;;;;4163321;28;20040;-82
2022/05/14 03:42:56;;;;;;;41.75;6.18;;;12.00;69.40;;;;;;4158970;28;20048;-83
2022/05/14 03:45:15;;;;;;;38.10;5.03;;;12.00;69.40;;;;;;4175178;28;20529;-82
2022/05/14 03:47:35;;;;;;;42.35;6.10;;;12.00;69.50;;;;;;4163497;28;20041;-83
2022/05/14 03:49:54;;;;;;;28.20;5.25;;;12.10;69.50;;;;;;4162818;28;20381;-82
2022/05/14 03:52:13;;;;;;;27.73;4.90;;;12.00;69.50;;;;;;4161579;28;20032;-84
2022/05/14 03:54:32;;;;;;;31.60;4.82;;;12.00;69.60;;;;;;4159358;28;20072;-82
2022/05/14 03:56:51;;;;;;;36.78;5.57;;;12.00;69.60;;;;;;4164287;28;20044;-83
2022/05/14 03:59:11;;;;;;;28.15;4.05;;;12.00;69.60;;;;;;4162557;28;20079;-83
2022/05/14 04:01:31;;;;;;;34.08;5.18;;;12.00;69.50;;;;;;4164823;28;20782;-83
2022/05/14 04:03:50;;;;;;;38.72;4.95;;;12.00;69.60;;;;;;4161903;28;20284;-82
2022/05/14 04:06:10;;;;;;;34.60;4.78;;;12.00;69.60;;;;;;4161800;28;20110;-82
2022/05/14 04:08:29;;;;;;;31.70;4.93;;;12.00;69.60;;;;;;4161110;28;20090;-83
2022/05/14 04:10:48;;;;;;;34.60;4.70;;;12.00;69.60;;;;;;4162824;28;20047;-83
2022/05/14 04:13:08;;;;;;;30.13;4.35;;;12.00;69.50;;;;;;4175950;28;20052;-82
2022/05/14 04:15:27;;;;;;;25.60;4.55;;;12.00;69.50;;;;;;4158477;28;20128;-83
2022/05/14 04:17:47;;;;;;;30.77;4.78;;;12.00;69.60;;;;;;4163589;28;20137;-82
2022/05/14 04:20:07;;;;;;;35.47;5.13;;;12.00;69.60;;;;;;4162624;28;20111;-83
2022/05/14 04:22:30;;;;;;;36.38;4.47;;;12.00;69.60;;;;;;4174653;28;20047;-83
2022/05/14 04:24:50;;;;;;;26.45;4.05;;;12.00;69.60;;;;;;4162262;28;20483;-83
2022/05/14 04:27:09;;;;;;;31.17;4.85;;;12.00;69.60;;;;;;4161345;28;20196;-83
2022/05/14 04:29:28;;;;;;;33.30;5.00;;;12.00;69.70;;;;;;4159949;28;20091;-83
2022/05/14 04:31:47;;;;;;;40.35;5.50;;;12.00;69.60;;;;;;4162217;28;20041;-83
2022/05/14 04:34:06;;;;;;;35.20;4.78;;;12.00;69.70;;;;;;4165175;28;20068;-83
2022/05/14 04:36:26;;;;;;;28.17;4.20;;;12.00;69.70;;;;;;4160464;28;20562;-84
2022/05/14 04:38:45;;;;;;;41.40;5.60;;;12.00;69.70;;;;;;4173218;28;20047;-83
2022/05/14 04:43:14;;;;;;;44.08;6.00;;;12.00;69.70;;;;;;4147702;28;20038;-86
2022/05/14 04:45:34;;;;;;;25.65;5.03;;;12.10;69.80;;;;;;4151057;28;20040;-86
2022/05/14 04:47:53;;;;;;;31.15;4.75;;;12.00;69.80;;;;;;4143984;28;20095;-85
2022/05/14 04:50:17;;;;;;;40.63;5.68;;;12.10;69.80;;;;;;4146000;28;20110;-87
2022/05/14 04:52:45;;;;;;;36.97;5.15;;;12.00;69.80;;;;;;4138275;28;20125;-86
2022/05/14 04:55:08;;;;;;;31.83;4.82;;;12.00;69.80;;;;;;4134954;28;20037;-87
2022/05/14 04:57:32;;;;;;;37.90;5.53;;;12.00;69.90;;;;;;4134678;28;20100;-84
2022/05/14 04:59:53;;;;;;;33.15;5.57;;;12.00;70.00;;;;;;4145141;28;20045;-90
2022/05/14 05:04:54;;;;;;;31.80;4.88;;;12.00;70.80;;;;;;4133670;28;21962;-89
2022/05/14 05:07:14;;;;;;;35.17;4.97;;;12.00;70.10;;;;;;4131314;28;20065;-87
2022/05/14 05:09:42;;;;;;;33.25;5.15;;;12.00;70.80;;;;;;4145194;28;20538;-85
2022/05/14 05:12:01;;;;;;;27.17;4.57;;;12.00;70.20;;;;;;4140728;28;20037;-86
2022/05/14 05:14:21;;;;;;;28.88;4.85;;;12.00;70.20;;;;;;4135806;28;20037;-86
2022/05/14 05:16:40;;;;;;;39.30;5.25;;;12.10;70.20;;;;;;4144635;28;20080;-88
2022/05/14 05:18:59;;;;;;;34.15;5.90;;;12.10;70.30;;;;;;4134314;28;20042;-86
2022/05/14 05:21:18;;;;;;;36.55;5.43;;;12.10;70.30;;;;;;4134446;28;20037;-86
2022/05/14 05:23:37;;;;;;;30.60;5.15;;;12.10;70.30;;;;;;4130170;28;20077;-85
2022/05/14 05:26:06;;;;;;;39.88;5.47;;;12.10;70.30;;;;;;4132922;28;20542;-87
2022/05/14 05:28:27;;;;;;;33.67;5.45;;;12.10;70.30;;;;;;4149625;28;20037;-86
2022/05/14 05:30:47;;;;;;;32.50;5.20;;;12.20;70.30;;;;;;4144409;28;20662;-85
2022/05/14 05:33:26;;;;;;;33.35;5.15;;;12.20;70.20;;;;;;4124888;28;20111;-86
2022/05/14 05:35:49;;;;;;;36.33;4.82;;;12.20;70.20;;;;;;4131377;28;20042;-86
2022/05/14 05:38:09;;;;;;;40.50;5.05;;;12.30;70.10;;;;;;4131745;28;20513;-85
2022/05/14 05:40:28;;;;;;;35.00;5.95;;;12.20;70.00;;;;;;4128955;28;20224;-86
2022/05/14 05:42:47;;;;;;;37.22;4.93;;;12.30;70.10;;;;;;4128314;28;20076;-86
2022/05/14 05:45:11;;;;;;;32.90;5.03;;;12.20;70.10;;;;;;4145690;28;20103;-86
2022/05/14 05:47:30;;;;;;;33.42;5.70;;;12.30;70.10;;;;;;4132224;28;20041;-85
2022/05/14 05:49:49;;;;;;;34.90;5.60;;;12.30;70.00;;;;;;4126090;28;20077;-85
2022/05/14 05:52:11;;;;;;;38.42;5.40;;;12.30;70.00;;;;;;4127660;28;20041;-86
2022/05/14 05:57:13;;;;;;;30.77;4.50;;;12.40;69.80;;;;;;4126457;28;20557;-87
2022/05/14 05:59:34;;;;;;;31.13;5.05;;;12.40;69.70;;;;;;4126400;28;20049;-85
2022/05/14 06:02:03;;;;;;;39.40;5.43;;;12.40;69.60;;;;;;4138270;28;20046;-86
2022/05/14 06:04:24;;;;;;;32.25;4.80;;;12.40;69.60;;;;;;4141313;28;20046;-87
2022/05/14 06:06:55;;;;;;;25.88;4.95;;;12.50;69.10;;;;;;4141752;28;20038;-85
2022/05/14 06:09:13;;;;;;;37.70;4.97;;;12.50;69.70;;;;;;4128427;28;20290;-86
2022/05/14 06:11:14;;;;;;;34.65;4.80;;;12.50;69.70;;;;;;4114321;28;20068;-85
2022/05/14 06:13:20;;;;;;;33.20;5.38;;;12.50;69.60;;;;;;4128677;28;20033;-88
2022/05/14 06:15:27;;;;;;;37.70;5.53;;;12.50;69.50;;;;;;4126358;28;21109;-88
2022/05/14 06:17:47;;;;;;;33.05;4.43;;;12.50;69.40;;;;;;4127364;28;20034;-87
2022/05/14 06:19:48;;;;;;;37.83;5.50;;;12.60;69.40;;;;;;4145501;28;20025;-87
2022/05/14 06:21:48;;;;;;;23.40;5.40;;;12.60;69.10;;;;;;4114605;28;20034;-84
2022/05/14 06:23:55;;;;;;;35.40;5.97;;;12.70;69.20;;;;;;4088869;28;20058;-84
2022/05/14 06:25:59;;;;;;;28.10;5.07;;;12.60;69.10;;;;;;4108759;28;20045;-85
2022/05/14 06:28:00;;;;;;;43.35;7.05;;;12.70;69.20;;;;;;4131142;28;20026;-87
2022/05/14 06:30:19;;;;;;;38.65;5.00;;;12.70;69.10;;;;;;4111650;28;20773;-88
2022/05/14 06:32:25;;;;;;;37.60;5.43;;;12.70;69.20;;;;;;4112920;28;20473;-85
2022/05/14 06:34:26;;;;;;;34.08;5.35;;;12.70;69.20;;;;;;4127241;28;20022;-88
2022/05/14 06:36:27;;;;;;;29.15;4.78;;;12.80;69.30;;;;;;4095469;28;20035;-87
2022/05/14 06:38:28;;;;;;;37.97;5.20;;;12.80;69.20;;;;;;4106187;28;20030;-86
2022/05/14 06:40:32;;;;;;;37.97;5.25;;;12.80;69.10;;;;;;4123696;28;20038;-87
2022/05/14 06:42:36;;;;;;;25.67;4.35;;;12.90;68.80;;;;;;4106710;28;20031;-85
2022/05/14 06:44:42;;;;;;;39.25;4.70;;;12.90;68.70;;;;;;4114453;28;20041;-86
2022/05/14 06:47:31;;;;;;;35.88;5.32;;;12.90;68.80;;;;;;4124001;28;20060;-85
2022/05/14 06:52:01;;;;;;;32.55;5.57;;;13.00;68.60;;;;;;4144676;23;20054;-85
2022/05/14 06:54:05;;;;;;;31.73;5.28;;;13.10;68.40;;;;;;4100321;28;20117;-87
2022/05/14 06:56:07;;;;;;;32.15;5.32;;;13.00;68.20;;;;;;4133551;28;20033;-84
2022/05/14 06:58:13;;;;;;;28.40;4.55;;;13.10;68.00;;;;;;4130077;28;20033;-84
2022/05/14 07:00:15;;;;;;;29.50;4.97;;;13.10;67.80;;;;;;4109374;28;20053;-85
2022/05/14 07:02:17;;;;;;;33.95;4.78;;;13.10;67.70;;;;;;4113151;28;20455;-83
2022/05/14 07:06:38;;;;;;;28.15;3.70;;;13.10;67.40;;;;;;4134031;28;20100;-86
2022/05/14 07:08:38;;;;;;;38.45;5.15;;;13.10;67.20;;;;;;4129316;28;20492;-85
2022/05/14 07:10:39;;;;;;;34.22;4.70;;;13.20;67.40;;;;;;4130763;28;20034;-85
2022/05/14 07:12:40;;;;;;;41.45;5.68;;;13.20;67.60;;;;;;4130948;28;20036;-84
2022/05/14 07:14:43;;;;;;;35.28;5.68;;;13.20;67.90;;;;;;4118012;28;20026;-85
2022/05/14 07:16:45;;;;;;;;;;;13.30;67.80;;;;;;4120547;28;20019;-86
2022/05/14 07:18:46;;;;;;;28.52;4.53;;;13.30;67.70;;;;;;4130922;28;19913;-87
2022/05/14 07:20:47;;;;;;;28.60;4.57;;;13.40;67.30;;;;;;4137462;28;20037;-85
2022/05/14 07:22:48;;;;;;;23.02;4.13;;;13.40;66.90;;;;;;4131138;28;20084;-85
2022/05/14 07:24:49;;;;;;;34.88;4.93;;;13.50;67.50;;;;;;4125239;28;20450;-85
2022/05/14 07:26:53;;;;;;;25.70;4.50;;;13.50;66.90;;;;;;4134941;28;21446;-85
2022/05/14 07:28:54;;;;;;;32.75;5.35;;;13.50;66.80;;;;;;4118009;28;20038;-85
2022/05/14 07:30:55;;;;;;;28.35;4.82;;;13.60;66.60;;;;;;4115001;28;20038;-85
2022/05/14 07:32:56;;;;;;;27.63;4.40;;;13.60;66.70;;;;;;4115893;28;20299;-86
2022/05/14 07:34:57;;;;;;;29.92;5.25;;;13.60;67.70;;;;;;4123905;28;20022;-85
2022/05/14 07:36:59;;;;;;;28.40;4.85;;;13.60;67.10;;;;;;4115822;28;20022;-86
2022/05/14 07:39:03;;;;;;;28.60;5.03;;;13.70;67.00;;;;;;4137864;28;20487;-86
2022/05/14 07:41:04;;;;;;;25.48;5.07;;;13.70;66.60;;;;;;4137103;28;20076;-86
2022/05/14 07:43:15;;;;;;;31.77;4.93;;;13.70;65.70;;;;;;4118818;28;20113;-86
2022/05/14 07:45:21;;;;;;;31.42;5.05;;;13.70;65.10;;;;;;4142892;28;20743;-85
2022/05/14 07:47:23;;;;;;;23.77;5.35;;;13.70;64.90;;;;;;4101087;28;20031;-85
2022/05/14 07:49:26;;;;;;;25.60;3.83;;;13.80;65.30;;;;;;4119322;28;21512;-86
2022/05/14 07:51:28;;;;;;;31.10;4.50;;;13.80;65.30;;;;;;4141427;28;20653;-86
2022/05/14 07:53:32;;;;;;;27.35;4.13;;;13.80;65.20;;;;;;4133659;28;20045;-85
2022/05/14 07:55:34;;;;;;;29.08;4.43;;;13.90;65.40;;;;;;4122742;28;20061;-84
2022/05/14 07:57:35;;;;;;;31.50;4.55;;;13.90;65.40;;;;;;4121175;28;20030;-86
2022/05/14 07:59:37;;;;;;;25.27;4.13;;;14.00;65.10;;;;;;4119398;28;20459;-85
2022/05/14 08:01:40;;;;;;;23.48;4.47;;;14.00;64.30;;;;;;4119730;28;20036;-85
2022/05/14 08:03:41;;;;;;;28.17;4.15;;;14.10;64.60;;;;;;4135528;28;21064;-83
2022/05/14 08:05:42;;;;;;;24.80;4.25;;;14.20;64.40;;;;;;4138743;28;20066;-86
2022/05/14 08:07:43;;;;;;;24.92;3.97;;;14.20;64.00;;;;;;4132173;28;20399;-86
2022/05/14 08:09:44;;;;;;;23.08;4.28;;;14.30;64.10;;;;;;4134102;28;20026;-85
2022/05/14 08:11:45;;;;;;;24.52;3.45;;;14.30;63.40;;;;;;4116691;28;20439;-85
2022/05/14 08:13:46;;;;;;;26.48;4.03;;;14.40;63.20;;;;;;4118341;28;20978;-85
2022/05/14 08:15:49;;;;;;;25.17;4.03;;;14.40;62.50;;;;;;4139494;28;20064;-84
2022/05/14 08:17:50;;;;;;;18.02;3.72;;;14.40;62.30;;;;;;4142100;28;20435;-85
2022/05/14 08:19:50;;;;;;;26.13;3.85;;;14.50;62.20;;;;;;4123028;28;20030;-86
2022/05/14 08:26:30;;;;;;;24.65;3.60;;;14.60;60.00;;;;;;4138498;28;20022;-84
2022/05/14 08:28:32;;;;;;;16.60;2.88;;;14.70;59.70;;;;;;4136584;28;20032;-86
2022/05/14 08:30:34;;;;;;;17.00;3.47;;;14.70;59.30;;;;;;4122636;28;20496;-85
2022/05/14 08:32:35;;;;;;;24.77;3.88;;;14.70;59.40;;;;;;4135620;28;20022;-86
2022/05/14 08:34:36;;;;;;;24.52;4.32;;;14.70;59.30;;;;;;4133474;28;20044;-86
2022/05/14 08:36:41;;;;;;;24.55;3.53;;;14.70;58.90;;;;;;4116989;28;20033;-86
2022/05/14 08:38:41;;;;;;;14.48;3.03;;;14.70;59.20;;;;;;4124838;28;20018;-86
2022/05/14 08:40:56;;;;;;;19.63;3.03;;;14.80;59.00;;;;;;4141423;28;20068;-85
2022/05/14 08:43:03;;;;;;;19.25;3.58;;;14.80;58.90;;;;;;4134790;28;20484;-85
2022/05/14 08:45:05;;;;;;;22.42;3.95;;;14.90;59.10;;;;;;4137825;28;20029;-84
2022/05/14 08:47:21;;;;;;;21.17;3.50;;;14.90;58.80;;;;;;4135176;28;20452;-86
2022/05/14 08:50:01;;;;;;;16.00;2.97;;;15.00;59.00;;;;;;4129574;28;20034;-84
2022/05/14 08:52:09;;;;;;;14.18;2.55;;;15.00;58.50;;;;;;4088986;28;20095;-85
2022/05/14 08:54:10;;;;;;;16.15;2.65;;;15.00;58.80;;;;;;4078335;28;20925;-84
2022/05/14 08:56:21;;;;;;;20.85;3.15;;;15.10;58.50;;;;;;4097348;28;20027;-85
2022/05/14 08:58:41;;;;;;;15.68;2.80;;;15.20;58.20;;;;;;4063136;29;20036;-85
2022/05/14 09:00:42;;;;;;;20.75;3.45;;;15.20;57.80;;;;;;4076333;28;20039;-85
2022/05/14 09:02:50;;;;;;;15.77;2.83;;;15.20;56.80;;;;;;4070326;29;21036;-86
2022/05/14 09:05:01;;;;;;;14.35;3.00;;;15.20;56.40;;;;;;4081554;28;20106;-85
2022/05/14 09:07:03;;;;;;;17.25;3.13;;;15.20;56.40;;;;;;4081711;28;20909;-86
2022/05/14 09:09:06;;;;;;;13.20;2.88;;;15.20;56.60;;;;;;4069525;29;20279;-86
2022/05/14 09:11:17;;;;;;;26.75;3.35;;;15.20;56.90;;;;;;4082978;28;20039;-87
2022/05/14 09:13:21;;;;;;;17.77;3.10;;;15.10;57.00;;;;;;4084189;28;20046;-87
2022/05/14 09:15:26;;;;;;;18.13;2.65;;;15.10;56.90;;;;;;4104254;28;20026;-87
2022/05/14 09:17:30;;;;;;;14.23;3.13;;;15.10;57.10;;;;;;4084919;28;20058;-87
2022/05/14 09:19:43;;;;;;;20.65;3.22;;;15.10;57.60;;;;;;4085889;28;20039;-86
2022/05/14 09:21:58;;;;;;;15.20;2.72;;;15.10;57.30;;;;;;4079502;28;21192;-85
2022/05/14 09:24:24;;;;;;;18.85;3.00;;;15.10;57.40;;;;;;4135987;28;20053;-87
2022/05/14 09:26:38;;;;;;;17.90;2.72;;;15.10;57.60;;;;;;4133959;28;20034;-85
2022/05/14 09:28:47;;;;;;;17.77;2.70;;;15.20;57.90;;;;;;4134236;28;20378;-85
2022/05/14 09:30:58;;;;;;;18.40;3.03;;;15.20;58.10;;;;;;4126537;28;20018;-94
2022/05/14 09:32:59;;;;;;;18.23;2.72;;;15.30;58.20;;;;;;4142835;28;20022;-90
2022/05/14 09:35:16;;;;;;;11.10;2.25;;;15.30;57.10;;;;;;4128860;28;20090;-92
2022/05/14 09:37:23;;;;;;;11.57;2.22;;;15.30;56.60;;;;;;4122536;28;20068;-91
2022/05/14 09:39:25;;;;;;;23.17;3.28;;;15.30;56.90;;;;;;4128129;28;20087;-92
2022/05/14 09:41:27;;;;;;;13.55;2.65;;;15.40;56.40;;;;;;4126947;28;20030;-91
2022/05/14 09:43:37;;;;;;;15.23;2.50;;;15.40;56.90;;;;;;4133446;28;20760;-90
2022/05/14 09:45:41;;;;;;;12.45;2.20;;;15.50;57.20;;;;;;4124604;28;20036;-93
2022/05/14 09:48:28;;;;;;;;;;;15.50;57.10;;;;;;4128908;28;20036;-91
2022/05/14 09:50:56;;;;;;;12.95;1.92;;;15.60;56.30;;;;;;4142189;28;20028;-90
2022/05/14 09:53:09;;;;;;;17.70;2.58;;;15.70;55.50;;;;;;4111867;28;20031;-90
2022/05/14 09:56:04;;;;;;;18.33;2.92;;;15.70;54.40;;;;;;4129096;28;20157;-92
2022/05/14 09:58:45;;;;;;;12.10;2.53;;;15.70;54.60;;;;;;4143185;28;20044;-91
2022/05/14 10:01:18;;;;;;;13.95;2.28;;;15.70;54.80;;;;;;4133022;28;20538;-92
2022/05/14 10:04:11;;;;;;;13.20;2.45;;;15.70;53.70;;;;;;4135204;28;20045;-90
2022/05/14 10:06:46;;;;;;;11.35;2.15;;;15.70;53.60;;;;;;4141593;28;20385;-90
2022/05/14 10:09:27;;;;;;;15.80;2.55;;;15.60;52.80;;;;;;4144912;28;20033;-89
2022/05/14 10:11:55;;;;;;;11.90;2.67;;;15.60;53.40;;;;;;4146053;28;20032;-89
2022/05/14 10:14:27;;;;;;;17.73;2.97;;;15.50;53.40;;;;;;4145761;28;20049;-90
2022/05/14 10:17:07;;;;;;;13.55;2.10;;;15.50;53.80;;;;;;4146584;28;20338;-90
2022/05/14 10:19:40;;;;;;;14.07;2.08;;;15.60;54.00;;;;;;4146927;28;20133;-90
2022/05/14 10:22:19;;;;;;;8.73;1.85;;;15.60;53.70;;;;;;4145293;28;20392;-92
2022/05/14 10:27:45;;;;;;;12.48;2.53;;;15.70;53.70;;;;;;4143530;28;20061;-91
2022/05/14 10:30:28;;;;;;;18.08;2.13;;;15.70;53.70;;;;;;4126803;28;20031;-90
2022/05/14 10:32:31;;;;;;;18.63;2.55;;;15.80;53.20;;;;;;4137704;28;20491;-91
2022/05/14 10:34:38;;;;;;;11.38;1.83;;;15.80;53.00;;;;;;4130556;28;20415;-91
2022/05/14 10:36:47;;;;;;;8.55;1.65;;;15.90;53.60;;;;;;4144359;28;20034;-91
2022/05/14 10:38:53;;;;;;;12.98;1.90;;;15.90;52.70;;;;;;4122551;28;20035;-90
2022/05/14 10:41:01;;;;;;;11.32;1.67;;;16.00;52.10;;;;;;4119808;28;20038;-90
2022/05/14 10:43:23;;;;;;;13.38;2.20;;;16.00;52.30;;;;;;4137292;28;20054;-88
2022/05/14 10:45:34;;;;;;;14.80;2.63;;;16.10;52.80;;;;;;4257182;23;20065;-83
2022/05/14 10:47:39;;;;;;;13.75;2.33;;;16.10;52.50;;;;;;4160381;28;20595;-83
2022/05/14 10:49:46;;;;;;;14.52;2.72;;;16.10;52.30;;;;;;4149339;28;20036;-82
2022/05/14 10:51:50;;;;;;;15.50;2.60;;;16.20;52.40;;;;;;4120186;28;20487;-86
2022/05/14 10:53:51;;;;;;;13.57;2.70;;;16.20;52.30;;;;;;4140803;28;20036;-84
2022/05/14 10:56:23;;;;;;;14.43;2.83;;;16.20;52.20;;;;;;4144936;28;20093;-85
2022/05/14 10:58:43;;;;;;;12.00;2.40;;;16.20;52.20;;;;;;4146779;28;20548;-86
2022/05/14 11:00:45;;;;;;;13.27;2.80;;;16.30;52.70;;;;;;4147918;28;20049;-85
2022/05/14 11:02:57;;;;;;;13.57;2.25;;;16.30;51.40;;;;;;4144336;28;20034;-84
2022/05/14 11:04:59;;;;;;;15.38;2.72;;;16.30;52.10;;;;;;4146827;28;20038;-85
2022/05/14 11:07:04;;;;;;;13.85;1.95;;;16.30;51.40;;;;;;4146137;28;20066;-85
2022/05/14 11:09:19;;;;;;;20.90;2.92;;;16.30;51.50;;;;;;4143110;28;20041;-85
2022/05/14 11:11:31;;;;;;;13.95;2.40;;;16.40;51.40;;;;;;4163998;28;20045;-86
2022/05/14 11:13:34;;;;;;;14.02;2.65;;;16.40;51.30;;;;;;4139894;28;20098;-86
2022/05/14 11:15:36;;;;;;;11.98;2.38;;;16.40;51.60;;;;;;4145964;28;20057;-85
2022/05/14 11:17:39;;;;;;;14.43;2.63;;;16.40;52.10;;;;;;4144392;28;20084;-85
2022/05/14 11:20:04;;;;;;;17.35;2.67;;;16.40;51.80;;;;;;4137879;28;20041;-84
2022/05/14 11:22:18;;;;;;;10.35;2.72;;;16.40;51.40;;;;;;4161677;28;20033;-84
2022/05/14 11:24:38;;;;;;;14.20;2.45;;;16.40;50.90;;;;;;4160233;28;20041;-84
2022/05/14 11:26:50;;;;;;;15.90;2.10;;;16.40;51.20;;;;;;4145470;28;20033;-83
2022/05/14 11:29:22;;;;;;;15.37;2.93;;;16.30;51.00;;;;;;4165690;28;20044;-85
2022/05/14 11:31:34;;;;;;;18.95;3.22;;;16.40;51.20;;;;;;4172094;28;20839;-85
2022/05/14 11:33:35;;;;;;;14.65;2.42;;;16.40;51.50;;;;;;4143544;28;20033;-85
2022/05/14 11:35:44;;;;;;;14.05;2.10;;;16.40;51.40;;;;;;4159897;28;20674;-85
2022/05/14 11:37:48;;;;;;;12.27;2.30;;;16.40;51.00;;;;;;4164157;28;20029;-84
2022/05/14 11:40:14;;;;;;;11.77;2.20;;;16.40;50.80;;;;;;4144838;28;20652;-84
2022/05/14 11:42:28;;;;;;;17.77;3.05;;;16.40;50.30;;;;;;4153986;28;20055;-85
2022/05/14 11:44:40;;;;;;;;;;;16.40;51.30;;;;;;4139862;28;20128;-85
2022/05/14 11:46:45;;;;;;;18.50;2.95;;;16.40;51.10;;;;;;4172853;28;19913;-82
2022/05/14 11:48:51;;;;;;;10.27;2.65;;;16.30;50.50;;;;;;4144674;28;20381;-84
2022/05/14 11:51:15;;;;;;;11.63;2.30;;;16.30;50.40;;;;;;4147356;28;20014;-85
2022/05/14 11:53:37;;;;;;;18.75;2.65;;;16.30;51.00;;;;;;4145584;28;20117;-84
2022/05/14 11:55:49;;;;;;;10.32;2.47;;;16.30;51.30;;;;;;4162877;28;20037;-85
2022/05/14 11:57:58;;;;;;;9.97;1.90;;;16.30;51.50;;;;;;4149713;28;20033;-85
2022/05/14 12:00:08;;;;;;;8.60;1.98;;;16.30;51.50;;;;;;4149518;28;20034;-86
2022/05/14 12:02:19;;;;;;;16.10;2.60;;;16.30;51.20;;;;;;4147605;28;20041;-84